Lipscomb, TX (79056)

1:50 AM CST on February 27, 2017 (GMT -0600)
Darrouzett - South Elm St. | | Change Station
Active Advisory: Fire Weather Watch

Elev 2579 ft 36.44 °N, 100.33 °W | Updated 2 seconds ago

Clear
Clear
32.5 °F
Feels Like 29 °F
N
3.6
Wind Variable Wind from SW
Gusts 4.9 mph

Today
High -- | Low -- °F
--% Chance of Precip.
Yesterday
High -- | Low -- °F
Precip. -- in
Pressure 29.91 in
Visibility 10.0 miles
Clouds Clear
Windchill 29 °F
Dew Point 28 °F
Humidity 84%
Rainfall 0.00 in
Snow Depth Not available.
7:13 AM 6:34 PM
New Moon, 1% visible
METAR KHHF 270735Z AUTO 00000KT 10SM CLR 03/00 A2991 RMK AO2 T00321005
Pressure 29.91 in
Visibility 10.0 miles
Clouds Clear
Windchill 29 °F
Dew Point 28 °F
Humidity 84%
Rainfall 0.00 in
Snow Depth Not available.
7:13 AM 6:34 PM
New Moon, 1% visible
METAR KHHF 270735Z AUTO 00000KT 10SM CLR 03/00 A2991 RMK AO2 T00321005

Get Your Daily Forecast Email!

Thanks for signing up!

Be on the lookout for a verification email in your inbox.

You'll start receiving the daily forecast at 8 AM.

×

10-Day Weather Forecast

Almanac

Astronomy

Feb. 27, 2017 Rise Set
Actual Time
Civil Twilight
Nautical Twilight
Astronomical Twilight
Moon
Length of Visible Light
Length of Day
Tomorrow will be .
, % of the Moon is Illuminated

Today's Extremes

State Highs State Lows

Community

WunderPhotos

Upload Photos

1,962,540 photos uploaded!

WunderBlog® & News

Nearby

Air Quality

  Air Quality AQ Index Pollutant
Not available.

Snow Depth

Station Depth Elevation

Earthquake Activity

City Distance Mag. Time & Date
Minimum magnitude displayed is 2.5.

Coastal Water Temperatures

Place Temperature

Stations

Nearby Weather Stations

Station Location Temp. Windchill Dew Point Humidity Wind Precip. Elev Updated Type
                   

Watches & Warnings

Fire Weather Watch
Issued: 5:10 PM CST Feb. 26, 2017 – National Weather Service

... Fire Weather Watch remains in effect from Tuesday morning
through Tuesday evening for strong winds and low relative
humidity for for all of the Oklahoma and Texas panhandles...

* affected area... in Oklahoma... Cimarron... Texas and Beaver. In
Texas... Hansford... Ochiltree... Lipscomb... Hutchinson...
Roberts... Hemphill... Carson... gray... Wheeler... Armstrong...
Donley and Collingsworth.

* 20 foot winds... west 30 to 40 mph with gusts up to 60 mph.

* Relative humidity... as low as 14 percent.

* Timing... elevated to critical fire weather conditions are
expected to begin around 11 am CST Tuesday morning and
expected to end around 7 PM CST Tuesday evening.

Precautionary/preparedness actions...

A Fire Weather Watch means that the potential for critical fire
weather conditions exists. Listen for later forecasts and
possible red flag warnings.



For more information from the National Weather Service visit...
www.Weather.Gov/Ama